sensor_id;sensor_type;location;lat;lon;timestamp;temperature;humidity
25438;DHT22;13364;49.084;9.978;2023-07-20T00:00:46;18.70;62.50
25438;DHT22;13364;49.084;9.978;2023-07-20T00:03:14;18.70;62.90
25438;DHT22;13364;49.084;9.978;2023-07-20T00:05:46;18.60;63.00
25438;DHT22;13364;49.084;9.978;2023-07-20T00:08:13;18.70;63.10
25438;DHT22;13364;49.084;9.978;2023-07-20T00:10:41;18.70;63.00
25438;DHT22;13364;49.084;9.978;2023-07-20T00:13:09;18.70;63.10
25438;DHT22;13364;49.084;9.978;2023-07-20T00:15:36;18.70;62.90
25438;DHT22;13364;49.084;9.978;2023-07-20T00:18:05;18.70;62.80
25438;DHT22;13364;49.084;9.978;2023-07-20T00:20:32;18.80;62.90
25438;DHT22;13364;49.084;9.978;2023-07-20T00:22:59;18.80;62.70
25438;DHT22;13364;49.084;9.978;2023-07-20T00:25:27;18.90;62.50
25438;DHT22;13364;49.084;9.978;2023-07-20T00:27:54;19.00;62.00
25438;DHT22;13364;49.084;9.978;2023-07-20T00:30:21;19.10;61.90
25438;DHT22;13364;49.084;9.978;2023-07-20T00:32:48;19.20;61.60
25438;DHT22;13364;49.084;9.978;2023-07-20T00:35:15;19.30;61.30
25438;DHT22;13364;49.084;9.978;2023-07-20T00:37:42;19.40;60.80
25438;DHT22;13364;49.084;9.978;2023-07-20T00:40:10;19.40;60.80
25438;DHT22;13364;49.084;9.978;2023-07-20T00:42:37;19.30;60.60
25438;DHT22;13364;49.084;9.978;2023-07-20T00:45:05;19.30;60.80
25438;DHT22;13364;49.084;9.978;2023-07-20T00:47:32;19.20;61.10
25438;DHT22;13364;49.084;9.978;2023-07-20T00:50:00;19.10;61.20
25438;DHT22;13364;49.084;9.978;2023-07-20T00:52:30;19.00;61.30
25438;DHT22;13364;49.084;9.978;2023-07-20T00:54:57;18.90;61.70
25438;DHT22;13364;49.084;9.978;2023-07-20T00:57:25;18.80;62.00
25438;DHT22;13364;49.084;9.978;2023-07-20T00:59:52;18.80;62.20
25438;DHT22;13364;49.084;9.978;2023-07-20T01:02:20;18.80;62.40
25438;DHT22;13364;49.084;9.978;2023-07-20T01:04:48;18.80;62.80
25438;DHT22;13364;49.084;9.978;2023-07-20T01:07:27;18.70;62.50
25438;DHT22;13364;49.084;9.978;2023-07-20T01:10:09;18.60;63.00
25438;DHT22;13364;49.084;9.978;2023-07-20T01:12:47;18.50;63.40
25438;DHT22;13364;49.084;9.978;2023-07-20T01:15:16;18.50;63.90
25438;DHT22;13364;49.084;9.978;2023-07-20T01:17:43;18.40;63.70
25438;DHT22;13364;49.084;9.978;2023-07-20T01:20:14;18.40;64.10
25438;DHT22;13364;49.084;9.978;2023-07-20T01:22:53;18.30;64.00
25438;DHT22;13364;49.084;9.978;2023-07-20T01:31:34;18.20;64.70
25438;DHT22;13364;49.084;9.978;2023-07-20T01:34:03;18.10;64.90
25438;DHT22;13364;49.084;9.978;2023-07-20T01:36:35;17.90;65.20
25438;DHT22;13364;49.084;9.978;2023-07-20T01:39:03;17.80;65.70
25438;DHT22;13364;49.084;9.978;2023-07-20T01:41:31;17.80;66.10
25438;DHT22;13364;49.084;9.978;2023-07-20T01:43:58;17.70;66.40
25438;DHT22;13364;49.084;9.978;2023-07-20T01:46:29;17.70;66.30
25438;DHT22;13364;49.084;9.978;2023-07-20T01:48:56;17.70;66.50
25438;DHT22;13364;49.084;9.978;2023-07-20T01:51:24;17.70;66.60
25438;DHT22;13364;49.084;9.978;2023-07-20T01:53:51;17.70;66.60
25438;DHT22;13364;49.084;9.978;2023-07-20T01:56:18;17.70;66.50
25438;DHT22;13364;49.084;9.978;2023-07-20T01:58:45;17.60;67.10
25438;DHT22;13364;49.084;9.978;2023-07-20T02:01:12;17.60;67.00
25438;DHT22;13364;49.084;9.978;2023-07-20T02:03:39;17.60;66.90
25438;DHT22;13364;49.084;9.978;2023-07-20T02:06:06;17.60;67.10
25438;DHT22;13364;49.084;9.978;2023-07-20T02:08:33;17.50;67.10
25438;DHT22;13364;49.084;9.978;2023-07-20T02:11:00;17.50;67.20
25438;DHT22;13364;49.084;9.978;2023-07-20T02:13:27;17.40;67.30
25438;DHT22;13364;49.084;9.978;2023-07-20T02:15:54;17.40;67.20
25438;DHT22;13364;49.084;9.978;2023-07-20T02:18:21;17.30;67.70
25438;DHT22;13364;49.084;9.978;2023-07-20T02:20:49;17.20;68.00
25438;DHT22;13364;49.084;9.978;2023-07-20T02:23:16;17.20;68.30
25438;DHT22;13364;49.084;9.978;2023-07-20T02:25:43;17.20;68.00
25438;DHT22;13364;49.084;9.978;2023-07-20T02:28:13;17.20;68.20
25438;DHT22;13364;49.084;9.978;2023-07-20T02:30:40;17.20;68.40
25438;DHT22;13364;49.084;9.978;2023-07-20T02:33:07;17.20;68.20
25438;DHT22;13364;49.084;9.978;2023-07-20T02:35:35;17.20;68.30
25438;DHT22;13364;49.084;9.978;2023-07-20T02:38:02;17.10;68.30
25438;DHT22;13364;49.084;9.978;2023-07-20T02:40:30;17.10;68.40
25438;DHT22;13364;49.084;9.978;2023-07-20T02:42:57;17.20;68.40
25438;DHT22;13364;49.084;9.978;2023-07-20T02:45:24;17.20;68.40
25438;DHT22;13364;49.084;9.978;2023-07-20T02:47:51;17.20;68.40
25438;DHT22;13364;49.084;9.978;2023-07-20T02:50:19;17.20;68.60
25438;DHT22;13364;49.084;9.978;2023-07-20T02:52:46;17.10;68.50
25438;DHT22;13364;49.084;9.978;2023-07-20T02:55:13;17.10;68.70
25438;DHT22;13364;49.084;9.978;2023-07-20T02:57:40;17.10;68.90
25438;DHT22;13364;49.084;9.978;2023-07-20T03:00:07;17.10;69.00
25438;DHT22;13364;49.084;9.978;2023-07-20T03:02:35;17.10;68.80
25438;DHT22;13364;49.084;9.978;2023-07-20T03:05:02;17.10;68.90
25438;DHT22;13364;49.084;9.978;2023-07-20T03:07:32;17.00;69.00
25438;DHT22;13364;49.084;9.978;2023-07-20T03:10:00;17.00;69.20
25438;DHT22;13364;49.084;9.978;2023-07-20T03:12:27;16.90;69.30
25438;DHT22;13364;49.084;9.978;2023-07-20T03:14:54;16.80;69.50
25438;DHT22;13364;49.084;9.978;2023-07-20T03:17:22;16.80;69.50
25438;DHT22;13364;49.084;9.978;2023-07-20T03:19:50;16.70;69.80
25438;DHT22;13364;49.084;9.978;2023-07-20T03:22:17;16.70;69.90
25438;DHT22;13364;49.084;9.978;2023-07-20T03:24:45;16.70;70.30
25438;DHT22;13364;49.084;9.978;2023-07-20T03:27:12;16.60;70.20
25438;DHT22;13364;49.084;9.978;2023-07-20T03:29:39;16.60;70.50
25438;DHT22;13364;49.084;9.978;2023-07-20T03:32:06;16.60;70.50
25438;DHT22;13364;49.084;9.978;2023-07-20T03:34:34;16.60;70.50
25438;DHT22;13364;49.084;9.978;2023-07-20T03:37:01;16.50;70.90
25438;DHT22;13364;49.084;9.978;2023-07-20T03:39:31;16.50;70.80
25438;DHT22;13364;49.084;9.978;2023-07-20T03:41:58;16.40;71.10
25438;DHT22;13364;49.084;9.978;2023-07-20T03:44:26;16.40;71.60
25438;DHT22;13364;49.084;9.978;2023-07-20T03:46:53;16.30;71.60
25438;DHT22;13364;49.084;9.978;2023-07-20T03:49:20;16.40;71.40
25438;DHT22;13364;49.084;9.978;2023-07-20T03:51:47;16.40;71.20
25438;DHT22;13364;49.084;9.978;2023-07-20T03:54:15;16.40;71.30
25438;DHT22;13364;49.084;9.978;2023-07-20T03:56:42;16.40;71.40
25438;DHT22;13364;49.084;9.978;2023-07-20T03:59:09;16.40;71.20
25438;DHT22;13364;49.084;9.978;2023-07-20T04:01:36;16.40;71.40
25438;DHT22;13364;49.084;9.978;2023-07-20T04:04:07;16.40;71.20
25438;DHT22;13364;49.084;9.978;2023-07-20T04:06:35;16.50;71.00
25438;DHT22;13364;49.084;9.978;2023-07-20T04:09:03;16.50;71.50
25438;DHT22;13364;49.084;9.978;2023-07-20T04:11:31;16.40;71.40
25438;DHT22;13364;49.084;9.978;2023-07-20T04:13:59;16.40;71.60
25438;DHT22;13364;49.084;9.978;2023-07-20T04:16:26;16.40;71.40
25438;DHT22;13364;49.084;9.978;2023-07-20T04:18:57;16.40;71.20
25438;DHT22;13364;49.084;9.978;2023-07-20T04:21:28;16.40;71.20
25438;DHT22;13364;49.084;9.978;2023-07-20T04:24:06;16.40;71.80
25438;DHT22;13364;49.084;9.978;2023-07-20T04:26:33;16.40;71.80
25438;DHT22;13364;49.084;9.978;2023-07-20T04:29:00;16.40;71.90
25438;DHT22;13364;49.084;9.978;2023-07-20T04:31:34;16.40;72.10
25438;DHT22;13364;49.084;9.978;2023-07-20T04:34:02;16.30;71.70
25438;DHT22;13364;49.084;9.978;2023-07-20T04:36:30;16.30;72.30
25438;DHT22;13364;49.084;9.978;2023-07-20T04:38:57;16.30;71.90
25438;DHT22;13364;49.084;9.978;2023-07-20T04:41:24;16.40;70.70
25438;DHT22;13364;49.084;9.978;2023-07-20T04:43:55;16.30;71.80
25438;DHT22;13364;49.084;9.978;2023-07-20T04:46:27;16.40;72.40
25438;DHT22;13364;49.084;9.978;2023-07-20T04:48:55;16.40;72.70
25438;DHT22;13364;49.084;9.978;2023-07-20T04:51:24;16.40;73.00
25438;DHT22;13364;49.084;9.978;2023-07-20T04:53:54;16.40;73.10
25438;DHT22;13364;49.084;9.978;2023-07-20T04:59:48;16.40;73.40
25438;DHT22;13364;49.084;9.978;2023-07-20T05:02:15;16.40;73.60
25438;DHT22;13364;49.084;9.978;2023-07-20T05:04:42;16.30;73.50
25438;DHT22;13364;49.084;9.978;2023-07-20T05:07:09;16.20;74.00
25438;DHT22;13364;49.084;9.978;2023-07-20T05:09:37;16.20;74.30
25438;DHT22;13364;49.084;9.978;2023-07-20T05:12:04;16.20;74.20
25438;DHT22;13364;49.084;9.978;2023-07-20T05:14:31;16.20;74.40
25438;DHT22;13364;49.084;9.978;2023-07-20T05:16:58;16.30;74.60
25438;DHT22;13364;49.084;9.978;2023-07-20T05:19:26;16.40;73.80
25438;DHT22;13364;49.084;9.978;2023-07-20T05:21:53;16.50;73.90
25438;DHT22;13364;49.084;9.978;2023-07-20T05:24:20;16.50;73.90
25438;DHT22;13364;49.084;9.978;2023-07-20T05:26:48;16.60;73.80
25438;DHT22;13364;49.084;9.978;2023-07-20T05:29:15;16.60;73.90
25438;DHT22;13364;49.084;9.978;2023-07-20T05:31:42;16.70;73.40
25438;DHT22;13364;49.084;9.978;2023-07-20T05:34:09;16.70;73.10
25438;DHT22;13364;49.084;9.978;2023-07-20T05:36:36;16.80;72.90
25438;DHT22;13364;49.084;9.978;2023-07-20T05:39:04;16.70;72.80
25438;DHT22;13364;49.084;9.978;2023-07-20T05:41:31;16.80;73.10
25438;DHT22;13364;49.084;9.978;2023-07-20T05:43:58;16.80;73.10
25438;DHT22;13364;49.084;9.978;2023-07-20T05:46:25;16.90;73.00
25438;DHT22;13364;49.084;9.978;2023-07-20T05:48:59;17.00;72.30
25438;DHT22;13364;49.084;9.978;2023-07-20T05:51:27;17.00;72.40
25438;DHT22;13364;49.084;9.978;2023-07-20T05:53:54;17.10;72.40
25438;DHT22;13364;49.084;9.978;2023-07-20T05:56:21;17.10;72.20
25438;DHT22;13364;49.084;9.978;2023-07-20T05:58:49;17.10;72.20
25438;DHT22;13364;49.084;9.978;2023-07-20T06:01:16;17.10;72.00
25438;DHT22;13364;49.084;9.978;2023-07-20T06:03:46;17.10;72.10
25438;DHT22;13364;49.084;9.978;2023-07-20T06:06:13;17.00;72.60
25438;DHT22;13364;49.084;9.978;2023-07-20T06:08:40;17.10;72.70
25438;DHT22;13364;49.084;9.978;2023-07-20T06:11:07;17.10;72.60
25438;DHT22;13364;49.084;9.978;2023-07-20T06:13:34;17.10;72.50
25438;DHT22;13364;49.084;9.978;2023-07-20T06:16:01;17.00;71.80
25438;DHT22;13364;49.084;9.978;2023-07-20T06:18:30;17.00;72.70
25438;DHT22;13364;49.084;9.978;2023-07-20T06:20:57;17.00;73.10
25438;DHT22;13364;49.084;9.978;2023-07-20T06:23:25;17.00;73.10
25438;DHT22;13364;49.084;9.978;2023-07-20T06:25:52;17.10;72.70
25438;DHT22;13364;49.084;9.978;2023-07-20T06:28:19;17.20;72.20
25438;DHT22;13364;49.084;9.978;2023-07-20T06:30:46;17.20;72.30
25438;DHT22;13364;49.084;9.978;2023-07-20T06:33:13;17.30;72.00
25438;DHT22;13364;49.084;9.978;2023-07-20T06:35:43;17.40;71.80
25438;DHT22;13364;49.084;9.978;2023-07-20T06:38:10;17.50;71.80
25438;DHT22;13364;49.084;9.978;2023-07-20T06:40:40;17.60;71.10
25438;DHT22;13364;49.084;9.978;2023-07-20T06:43:07;17.70;70.60
25438;DHT22;13364;49.084;9.978;2023-07-20T06:45:37;17.80;70.50
25438;DHT22;13364;49.084;9.978;2023-07-20T06:48:04;18.00;69.90
25438;DHT22;13364;49.084;9.978;2023-07-20T06:50:31;18.00;69.00
25438;DHT22;13364;49.084;9.978;2023-07-20T06:56:08;18.20;69.10
25438;DHT22;13364;49.084;9.978;2023-07-20T06:58:35;18.30;68.90
25438;DHT22;13364;49.084;9.978;2023-07-20T07:01:07;18.30;68.60
25438;DHT22;13364;49.084;9.978;2023-07-20T07:03:34;18.40;68.10
25438;DHT22;13364;49.084;9.978;2023-07-20T07:06:02;18.50;68.60
25438;DHT22;13364;49.084;9.978;2023-07-20T07:08:29;18.50;67.90
25438;DHT22;13364;49.084;9.978;2023-07-20T07:10:56;18.50;67.90
25438;DHT22;13364;49.084;9.978;2023-07-20T07:13:23;18.50;68.10
25438;DHT22;13364;49.084;9.978;2023-07-20T07:15:51;18.60;68.10
25438;DHT22;13364;49.084;9.978;2023-07-20T07:18:18;18.60;67.80
25438;DHT22;13364;49.084;9.978;2023-07-20T07:20:51;18.70;66.80
25438;DHT22;13364;49.084;9.978;2023-07-20T07:23:19;18.80;67.10
25438;DHT22;13364;49.084;9.978;2023-07-20T07:25:46;18.90;65.70
25438;DHT22;13364;49.084;9.978;2023-07-20T07:28:14;18.90;66.20
25438;DHT22;13364;49.084;9.978;2023-07-20T07:30:41;19.00;66.30
25438;DHT22;13364;49.084;9.978;2023-07-20T07:33:08;19.10;65.10
25438;DHT22;13364;49.084;9.978;2023-07-20T07:35:37;19.10;65.40
25438;DHT22;13364;49.084;9.978;2023-07-20T07:38:04;19.20;65.40
25438;DHT22;13364;49.084;9.978;2023-07-20T07:40:53;19.30;64.70
25438;DHT22;13364;49.084;9.978;2023-07-20T07:43:20;19.30;63.50
25438;DHT22;13364;49.084;9.978;2023-07-20T07:45:47;19.30;64.70
25438;DHT22;13364;49.084;9.978;2023-07-20T07:48:14;19.50;64.70
25438;DHT22;13364;49.084;9.978;2023-07-20T07:50:41;19.60;64.60
25438;DHT22;13364;49.084;9.978;2023-07-20T07:53:08;19.80;64.30
25438;DHT22;13364;49.084;9.978;2023-07-20T07:55:36;20.00;62.80
25438;DHT22;13364;49.084;9.978;2023-07-20T07:58:03;20.10;62.70
25438;DHT22;13364;49.084;9.978;2023-07-20T08:00:31;20.20;61.70
25438;DHT22;13364;49.084;9.978;2023-07-20T08:02:58;20.20;61.80
25438;DHT22;13364;49.084;9.978;2023-07-20T08:05:25;20.30;62.50
25438;DHT22;13364;49.084;9.978;2023-07-20T08:07:53;20.40;61.50
25438;DHT22;13364;49.084;9.978;2023-07-20T08:10:21;20.60;59.80
25438;DHT22;13364;49.084;9.978;2023-07-20T08:12:48;20.70;60.10
25438;DHT22;13364;49.084;9.978;2023-07-20T08:15:16;20.70;60.10
25438;DHT22;13364;49.084;9.978;2023-07-20T08:17:43;20.80;60.60
25438;DHT22;13364;49.084;9.978;2023-07-20T08:20:13;20.90;60.50
25438;DHT22;13364;49.084;9.978;2023-07-20T08:22:40;20.90;59.80
25438;DHT22;13364;49.084;9.978;2023-07-20T08:25:08;20.90;58.80
25438;DHT22;13364;49.084;9.978;2023-07-20T08:27:36;20.90;59.80
25438;DHT22;13364;49.084;9.978;2023-07-20T08:30:04;21.00;59.60
25438;DHT22;13364;49.084;9.978;2023-07-20T08:32:32;21.00;59.70
25438;DHT22;13364;49.084;9.978;2023-07-20T08:35:00;21.00;58.80
25438;DHT22;13364;49.084;9.978;2023-07-20T08:37:27;21.00;58.70
25438;DHT22;13364;49.084;9.978;2023-07-20T08:39:54;21.10;58.90
25438;DHT22;13364;49.084;9.978;2023-07-20T08:42:22;21.10;58.30
25438;DHT22;13364;49.084;9.978;2023-07-20T08:44:52;21.20;58.00
25438;DHT22;13364;49.084;9.978;2023-07-20T08:47:20;21.10;57.80
25438;DHT22;13364;49.084;9.978;2023-07-20T08:49:49;21.20;57.30
25438;DHT22;13364;49.084;9.978;2023-07-20T08:52:16;21.20;57.40
25438;DHT22;13364;49.084;9.978;2023-07-20T08:54:43;21.30;57.50
25438;DHT22;13364;49.084;9.978;2023-07-20T08:57:13;21.30;58.00
25438;DHT22;13364;49.084;9.978;2023-07-20T08:59:41;21.40;57.40
25438;DHT22;13364;49.084;9.978;2023-07-20T09:02:13;21.50;56.50
25438;DHT22;13364;49.084;9.978;2023-07-20T09:04:44;21.50;55.50
25438;DHT22;13364;49.084;9.978;2023-07-20T09:07:12;21.50;57.40
25438;DHT22;13364;49.084;9.978;2023-07-20T09:09:40;21.60;56.00
25438;DHT22;13364;49.084;9.978;2023-07-20T09:12:14;21.80;55.20
25438;DHT22;13364;49.084;9.978;2023-07-20T09:14:44;22.00;55.50
25438;DHT22;13364;49.084;9.978;2023-07-20T09:17:15;22.20;54.90
25438;DHT22;13364;49.084;9.978;2023-07-20T09:19:50;22.40;54.30
25438;DHT22;13364;49.084;9.978;2023-07-20T09:22:17;22.50;54.20
25438;DHT22;13364;49.084;9.978;2023-07-20T09:24:44;22.60;51.60
25438;DHT22;13364;49.084;9.978;2023-07-20T09:27:12;22.50;51.20
25438;DHT22;13364;49.084;9.978;2023-07-20T09:29:48;22.50;51.20
25438;DHT22;13364;49.084;9.978;2023-07-20T09:32:20;22.50;51.60
25438;DHT22;13364;49.084;9.978;2023-07-20T09:34:50;22.60;51.60
25438;DHT22;13364;49.084;9.978;2023-07-20T09:37:22;22.70;51.40
25438;DHT22;13364;49.084;9.978;2023-07-20T09:39:52;23.00;50.80
25438;DHT22;13364;49.084;9.978;2023-07-20T09:42:22;23.20;51.80
25438;DHT22;13364;49.084;9.978;2023-07-20T09:44:56;23.40;51.20
25438;DHT22;13364;49.084;9.978;2023-07-20T09:47:23;23.60;49.30
25438;DHT22;13364;49.084;9.978;2023-07-20T09:49:58;23.60;49.10
25438;DHT22;13364;49.084;9.978;2023-07-20T09:52:34;23.60;48.40
25438;DHT22;13364;49.084;9.978;2023-07-20T09:55:06;23.50;48.90
25438;DHT22;13364;49.084;9.978;2023-07-20T09:57:34;23.50;48.70
25438;DHT22;13364;49.084;9.978;2023-07-20T10:00:04;23.40;48.40
25438;DHT22;13364;49.084;9.978;2023-07-20T10:02:46;23.30;50.30
25438;DHT22;13364;49.084;9.978;2023-07-20T10:05:14;23.20;48.90
25438;DHT22;13364;49.084;9.978;2023-07-20T10:07:47;23.20;49.00
25438;DHT22;13364;49.084;9.978;2023-07-20T10:10:16;23.00;49.70
25438;DHT22;13364;49.084;9.978;2023-07-20T10:12:47;23.00;50.20
25438;DHT22;13364;49.084;9.978;2023-07-20T10:15:36;23.10;50.20
25438;DHT22;13364;49.084;9.978;2023-07-20T10:18:14;23.40;50.90
25438;DHT22;13364;49.084;9.978;2023-07-20T10:20:44;23.60;49.30
25438;DHT22;13364;49.084;9.978;2023-07-20T10:23:16;23.60;49.20
25438;DHT22;13364;49.084;9.978;2023-07-20T10:25:44;23.60;49.80
25438;DHT22;13364;49.084;9.978;2023-07-20T10:28:13;23.60;49.20
25438;DHT22;13364;49.084;9.978;2023-07-20T10:30:41;23.60;49.30
25438;DHT22;13364;49.084;9.978;2023-07-20T10:33:09;23.60;48.90
25438;DHT22;13364;49.084;9.978;2023-07-20T10:35:57;23.80;49.00
25438;DHT22;13364;49.084;9.978;2023-07-20T10:38:54;23.90;48.40
25438;DHT22;13364;49.084;9.978;2023-07-20T10:41:29;24.20;48.60
25438;DHT22;13364;49.084;9.978;2023-07-20T10:44:05;24.20;47.80
25438;DHT22;13364;49.084;9.978;2023-07-20T10:49:10;24.00;46.40
25438;DHT22;13364;49.084;9.978;2023-07-20T10:51:46;23.60;46.80
25438;DHT22;13364;49.084;9.978;2023-07-20T10:56:48;23.50;49.70
25438;DHT22;13364;49.084;9.978;2023-07-20T11:01:55;24.10;46.70
25438;DHT22;13364;49.084;9.978;2023-07-20T11:04:45;24.30;44.80
25438;DHT22;13364;49.084;9.978;2023-07-20T11:07:17;24.40;43.00
25438;DHT22;13364;49.084;9.978;2023-07-20T11:09:45;24.50;42.20
25438;DHT22;13364;49.084;9.978;2023-07-20T11:12:17;24.60;41.40
25438;DHT22;13364;49.084;9.978;2023-07-20T11:14:57;24.60;42.50
25438;DHT22;13364;49.084;9.978;2023-07-20T11:17:30;24.80;42.60
25438;DHT22;13364;49.084;9.978;2023-07-20T11:19:59;24.90;42.60
25438;DHT22;13364;49.084;9.978;2023-07-20T11:22:33;24.90;41.70
25438;DHT22;13364;49.084;9.978;2023-07-20T11:25:00;24.90;43.50
25438;DHT22;13364;49.084;9.978;2023-07-20T11:27:27;25.00;42.50
25438;DHT22;13364;49.084;9.978;2023-07-20T11:29:56;25.10;43.00
25438;DHT22;13364;49.084;9.978;2023-07-20T11:32:24;25.30;42.90
25438;DHT22;13364;49.084;9.978;2023-07-20T11:34:52;25.40;42.30
25438;DHT22;13364;49.084;9.978;2023-07-20T11:37:19;25.50;41.80
25438;DHT22;13364;49.084;9.978;2023-07-20T11:39:46;25.50;40.90
25438;DHT22;13364;49.084;9.978;2023-07-20T11:42:14;25.60;40.50
25438;DHT22;13364;49.084;9.978;2023-07-20T11:44:44;25.50;42.10
25438;DHT22;13364;49.084;9.978;2023-07-20T11:47:12;25.60;42.40
25438;DHT22;13364;49.084;9.978;2023-07-20T11:49:43;25.60;43.20
25438;DHT22;13364;49.084;9.978;2023-07-20T11:52:13;25.70;42.20
25438;DHT22;13364;49.084;9.978;2023-07-20T11:54:43;25.80;41.70
25438;DHT22;13364;49.084;9.978;2023-07-20T11:57:19;25.80;42.20
25438;DHT22;13364;49.084;9.978;2023-07-20T11:59:57;25.90;42.00
25438;DHT22;13364;49.084;9.978;2023-07-20T12:02:26;26.00;41.20
25438;DHT22;13364;49.084;9.978;2023-07-20T12:04:54;26.30;42.50
25438;DHT22;13364;49.084;9.978;2023-07-20T12:07:22;26.50;39.80
25438;DHT22;13364;49.084;9.978;2023-07-20T12:10:09;26.60;40.10
25438;DHT22;13364;49.084;9.978;2023-07-20T12:12:41;26.50;39.80
25438;DHT22;13364;49.084;9.978;2023-07-20T12:17:46;26.30;41.10
25438;DHT22;13364;49.084;9.978;2023-07-20T12:20:13;26.40;39.10
25438;DHT22;13364;49.084;9.978;2023-07-20T12:22:51;26.20;39.20
25438;DHT22;13364;49.084;9.978;2023-07-20T12:25:18;26.20;39.80
25438;DHT22;13364;49.084;9.978;2023-07-20T12:27:55;26.20;39.40
25438;DHT22;13364;49.084;9.978;2023-07-20T12:30:22;26.20;38.00
25438;DHT22;13364;49.084;9.978;2023-07-20T12:32:49;26.30;39.80
25438;DHT22;13364;49.084;9.978;2023-07-20T12:35:16;26.40;39.00
25438;DHT22;13364;49.084;9.978;2023-07-20T12:37:43;26.60;38.40
25438;DHT22;13364;49.084;9.978;2023-07-20T12:40:10;26.70;37.40
25438;DHT22;13364;49.084;9.978;2023-07-20T12:42:38;26.80;38.20
25438;DHT22;13364;49.084;9.978;2023-07-20T12:45:06;26.90;38.50
25438;DHT22;13364;49.084;9.978;2023-07-20T12:47:33;26.80;36.70
25438;DHT22;13364;49.084;9.978;2023-07-20T12:50:00;26.90;37.20
25438;DHT22;13364;49.084;9.978;2023-07-20T12:52:27;27.10;36.00
25438;DHT22;13364;49.084;9.978;2023-07-20T12:55:01;27.20;37.30
25438;DHT22;13364;49.084;9.978;2023-07-20T12:57:28;27.30;36.10
25438;DHT22;13364;49.084;9.978;2023-07-20T12:59:56;27.50;34.40
25438;DHT22;13364;49.084;9.978;2023-07-20T13:02:24;27.50;35.00
25438;DHT22;13364;49.084;9.978;2023-07-20T13:04:56;27.60;34.90
25438;DHT22;13364;49.084;9.978;2023-07-20T13:07:35;27.80;33.80
25438;DHT22;13364;49.084;9.978;2023-07-20T13:10:05;27.80;34.80
25438;DHT22;13364;49.084;9.978;2023-07-20T13:12:34;27.90;33.00
25438;DHT22;13364;49.084;9.978;2023-07-20T13:15:03;28.00;33.40
25438;DHT22;13364;49.084;9.978;2023-07-20T13:17:39;27.80;33.10
25438;DHT22;13364;49.084;9.978;2023-07-20T13:20:08;27.80;34.40
25438;DHT22;13364;49.084;9.978;2023-07-20T13:22:37;27.80;34.50
25438;DHT22;13364;49.084;9.978;2023-07-20T13:25:06;28.00;33.90
25438;DHT22;13364;49.084;9.978;2023-07-20T13:27:38;28.10;32.80
25438;DHT22;13364;49.084;9.978;2023-07-20T13:30:05;28.00;33.40
25438;DHT22;13364;49.084;9.978;2023-07-20T13:32:38;28.00;33.90
25438;DHT22;13364;49.084;9.978;2023-07-20T13:35:11;28.10;33.70
25438;DHT22;13364;49.084;9.978;2023-07-20T13:37:38;28.30;34.10
25438;DHT22;13364;49.084;9.978;2023-07-20T13:40:06;28.50;34.20
25438;DHT22;13364;49.084;9.978;2023-07-20T13:42:33;28.50;32.50
25438;DHT22;13364;49.084;9.978;2023-07-20T13:45:01;28.20;32.50
25438;DHT22;13364;49.084;9.978;2023-07-20T13:47:31;28.10;33.10
25438;DHT22;13364;49.084;9.978;2023-07-20T13:49:59;28.00;34.30
25438;DHT22;13364;49.084;9.978;2023-07-20T13:52:30;28.10;34.80
25438;DHT22;13364;49.084;9.978;2023-07-20T13:55:01;28.30;33.50
25438;DHT22;13364;49.084;9.978;2023-07-20T13:57:31;28.60;32.80
25438;DHT22;13364;49.084;9.978;2023-07-20T14:00:02;28.70;32.20
25438;DHT22;13364;49.084;9.978;2023-07-20T14:02:40;28.70;31.40
25438;DHT22;13364;49.084;9.978;2023-07-20T14:05:10;28.70;32.70
25438;DHT22;13364;49.084;9.978;2023-07-20T14:07:40;28.70;32.70
25438;DHT22;13364;49.084;9.978;2023-07-20T14:10:10;28.60;32.50
25438;DHT22;13364;49.084;9.978;2023-07-20T14:12:40;28.50;32.80
25438;DHT22;13364;49.084;9.978;2023-07-20T14:15:07;28.50;32.10
25438;DHT22;13364;49.084;9.978;2023-07-20T14:17:34;28.50;33.10
25438;DHT22;13364;49.084;9.978;2023-07-20T14:20:04;28.60;32.60
25438;DHT22;13364;49.084;9.978;2023-07-20T14:22:48;28.60;32.40
25438;DHT22;13364;49.084;9.978;2023-07-20T14:25:17;28.50;31.20
25438;DHT22;13364;49.084;9.978;2023-07-20T14:27:46;28.10;31.20
25438;DHT22;13364;49.084;9.978;2023-07-20T14:30:13;27.90;32.70
25438;DHT22;13364;49.084;9.978;2023-07-20T14:32:41;27.80;32.80
25438;DHT22;13364;49.084;9.978;2023-07-20T14:35:08;27.70;33.20
25438;DHT22;13364;49.084;9.978;2023-07-20T14:37:37;27.80;33.60
25438;DHT22;13364;49.084;9.978;2023-07-20T14:40:04;27.90;33.20
25438;DHT22;13364;49.084;9.978;2023-07-20T14:42:34;28.00;33.90
25438;DHT22;13364;49.084;9.978;2023-07-20T14:45:02;28.10;33.70
25438;DHT22;13364;49.084;9.978;2023-07-20T14:47:29;28.20;33.50
25438;DHT22;13364;49.084;9.978;2023-07-20T14:49:59;28.20;33.60
25438;DHT22;13364;49.084;9.978;2023-07-20T14:52:26;28.20;31.80
25438;DHT22;13364;49.084;9.978;2023-07-20T14:54:55;27.90;32.00
25438;DHT22;13364;49.084;9.978;2023-07-20T14:57:22;27.90;32.30
25438;DHT22;13364;49.084;9.978;2023-07-20T14:59:50;27.90;33.10
25438;DHT22;13364;49.084;9.978;2023-07-20T15:02:18;28.00;34.00
25438;DHT22;13364;49.084;9.978;2023-07-20T15:04:49;28.20;32.80
25438;DHT22;13364;49.084;9.978;2023-07-20T15:07:18;28.20;33.40
25438;DHT22;13364;49.084;9.978;2023-07-20T15:09:45;28.30;33.70
25438;DHT22;13364;49.084;9.978;2023-07-20T15:12:12;28.30;34.00
25438;DHT22;13364;49.084;9.978;2023-07-20T15:14:41;28.40;34.10
25438;DHT22;13364;49.084;9.978;2023-07-20T15:17:10;28.50;33.10
25438;DHT22;13364;49.084;9.978;2023-07-20T15:19:38;28.50;32.40
25438;DHT22;13364;49.084;9.978;2023-07-20T15:22:05;28.50;32.40
25438;DHT22;13364;49.084;9.978;2023-07-20T15:24:34;28.40;32.40
25438;DHT22;13364;49.084;9.978;2023-07-20T15:27:01;28.30;33.00
25438;DHT22;13364;49.084;9.978;2023-07-20T15:29:30;28.20;33.50
25438;DHT22;13364;49.084;9.978;2023-07-20T15:32:00;28.10;33.80
25438;DHT22;13364;49.084;9.978;2023-07-20T15:34:27;28.20;33.10
25438;DHT22;13364;49.084;9.978;2023-07-20T15:36:54;28.10;32.40
25438;DHT22;13364;49.084;9.978;2023-07-20T15:39:21;27.90;32.50
25438;DHT22;13364;49.084;9.978;2023-07-20T15:42:08;27.70;33.20
25438;DHT22;13364;49.084;9.978;2023-07-20T15:44:35;27.70;34.00
25438;DHT22;13364;49.084;9.978;2023-07-20T15:47:02;27.80;33.20
25438;DHT22;13364;49.084;9.978;2023-07-20T15:49:29;27.80;33.80
25438;DHT22;13364;49.084;9.978;2023-07-20T15:51:59;28.00;34.70
25438;DHT22;13364;49.084;9.978;2023-07-20T15:54:26;28.10;34.20
25438;DHT22;13364;49.084;9.978;2023-07-20T15:56:53;28.10;32.60
25438;DHT22;13364;49.084;9.978;2023-07-20T15:59:21;28.20;33.30
25438;DHT22;13364;49.084;9.978;2023-07-20T16:01:48;28.10;32.20
25438;DHT22;13364;49.084;9.978;2023-07-20T16:04:16;27.90;32.40